sensor_id;sensor_type;location;lat;lon;timestamp;temperature;humidity
1578;DHT22;57623;53.608;10.004;2024-02-26T00:02:18;5.00;99.90
1578;DHT22;57623;53.608;10.004;2024-02-26T00:04:47;5.00;99.90
1578;DHT22;57623;53.608;10.004;2024-02-26T00:07:15;4.90;99.90
1578;DHT22;57623;53.608;10.004;2024-02-26T00:09:43;4.90;99.90
1578;DHT22;57623;53.608;10.004;2024-02-26T00:12:11;4.80;99.90
1578;DHT22;57623;53.608;10.004;2024-02-26T00:14:39;4.80;99.90
1578;DHT22;57623;53.608;10.004;2024-02-26T00:17:08;4.80;99.90
1578;DHT22;57623;53.608;10.004;2024-02-26T00:19:36;4.70;99.90
1578;DHT22;57623;53.608;10.004;2024-02-26T00:22:05;4.70;99.90
1578;DHT22;57623;53.608;10.004;2024-02-26T00:24:33;4.70;99.90
1578;DHT22;57623;53.608;10.004;2024-02-26T00:27:01;4.60;99.90
1578;DHT22;57623;53.608;10.004;2024-02-26T00:29:30;4.60;99.90
1578;DHT22;57623;53.608;10.004;2024-02-26T00:31:59;4.50;99.90
1578;DHT22;57623;53.608;10.004;2024-02-26T00:34:27;4.50;99.90
1578;DHT22;57623;53.608;10.004;2024-02-26T00:36:56;4.50;99.90
1578;DHT22;57623;53.608;10.004;2024-02-26T00:39:25;4.50;99.90
1578;DHT22;57623;53.608;10.004;2024-02-26T00:41:53;4.40;99.90
1578;DHT22;57623;53.608;10.004;2024-02-26T00:44:21;4.30;99.90
1578;DHT22;57623;53.608;10.004;2024-02-26T00:46:49;4.30;99.90
1578;DHT22;57623;53.608;10.004;2024-02-26T00:49:17;4.30;99.90
1578;DHT22;57623;53.608;10.004;2024-02-26T00:51:45;4.30;99.90
1578;DHT22;57623;53.608;10.004;2024-02-26T00:54:13;4.20;99.90
1578;DHT22;57623;53.608;10.004;2024-02-26T00:56:43;4.20;99.90
1578;DHT22;57623;53.608;10.004;2024-02-26T00:59:11;4.20;99.90
1578;DHT22;57623;53.608;10.004;2024-02-26T01:01:39;4.10;99.90
1578;DHT22;57623;53.608;10.004;2024-02-26T01:04:07;4.10;99.90
1578;DHT22;57623;53.608;10.004;2024-02-26T01:06:35;4.10;99.90
1578;DHT22;57623;53.608;10.004;2024-02-26T01:09:03;4.10;99.90
1578;DHT22;57623;53.608;10.004;2024-02-26T01:11:31;4.00;99.90
1578;DHT22;57623;53.608;10.004;2024-02-26T01:14:01;4.00;99.90
1578;DHT22;57623;53.608;10.004;2024-02-26T01:16:30;4.00;99.90
1578;DHT22;57623;53.608;10.004;2024-02-26T01:18:58;3.90;99.90
1578;DHT22;57623;53.608;10.004;2024-02-26T01:21:26;3.90;99.90
1578;DHT22;57623;53.608;10.004;2024-02-26T01:23:56;3.90;99.90
1578;DHT22;57623;53.608;10.004;2024-02-26T01:26:24;3.90;99.90
1578;DHT22;57623;53.608;10.004;2024-02-26T01:28:52;3.80;99.90
1578;DHT22;57623;53.608;10.004;2024-02-26T01:31:23;3.80;99.90
1578;DHT22;57623;53.608;10.004;2024-02-26T01:33:50;3.70;99.90
1578;DHT22;57623;53.608;10.004;2024-02-26T01:36:19;3.70;99.90
1578;DHT22;57623;53.608;10.004;2024-02-26T01:38:48;3.70;99.90
1578;DHT22;57623;53.608;10.004;2024-02-26T01:41:16;3.70;99.90
1578;DHT22;57623;53.608;10.004;2024-02-26T01:43:44;3.60;99.90
1578;DHT22;57623;53.608;10.004;2024-02-26T01:46:14;3.60;99.90
1578;DHT22;57623;53.608;10.004;2024-02-26T01:48:44;3.60;99.90
1578;DHT22;57623;53.608;10.004;2024-02-26T01:51:14;3.50;99.90
1578;DHT22;57623;53.608;10.004;2024-02-26T01:53:44;3.50;99.90
1578;DHT22;57623;53.608;10.004;2024-02-26T01:56:13;3.50;99.90
1578;DHT22;57623;53.608;10.004;2024-02-26T01:58:42;3.50;99.90
1578;DHT22;57623;53.608;10.004;2024-02-26T02:01:11;3.40;99.90
1578;DHT22;57623;53.608;10.004;2024-02-26T02:03:40;3.40;99.90
1578;DHT22;57623;53.608;10.004;2024-02-26T02:06:09;3.40;99.90
1578;DHT22;57623;53.608;10.004;2024-02-26T02:08:38;3.40;99.90
1578;DHT22;57623;53.608;10.004;2024-02-26T02:11:06;3.40;99.90
1578;DHT22;57623;53.608;10.004;2024-02-26T02:13:37;3.40;99.90
1578;DHT22;57623;53.608;10.004;2024-02-26T02:16:05;3.40;99.90
1578;DHT22;57623;53.608;10.004;2024-02-26T02:18:33;3.30;99.90
1578;DHT22;57623;53.608;10.004;2024-02-26T02:21:03;3.30;99.90
1578;DHT22;57623;53.608;10.004;2024-02-26T02:23:31;3.30;99.90
1578;DHT22;57623;53.608;10.004;2024-02-26T02:25:59;3.20;99.90
1578;DHT22;57623;53.608;10.004;2024-02-26T02:28:30;3.20;99.90
1578;DHT22;57623;53.608;10.004;2024-02-26T02:30:59;3.20;99.90
1578;DHT22;57623;53.608;10.004;2024-02-26T02:33:27;3.10;99.90
1578;DHT22;57623;53.608;10.004;2024-02-26T02:35:55;3.10;99.90
1578;DHT22;57623;53.608;10.004;2024-02-26T02:38:26;3.10;99.90
1578;DHT22;57623;53.608;10.004;2024-02-26T02:41:01;3.10;99.90
1578;DHT22;57623;53.608;10.004;2024-02-26T02:43:29;3.10;99.90
1578;DHT22;57623;53.608;10.004;2024-02-26T02:45:57;3.10;99.90
1578;DHT22;57623;53.608;10.004;2024-02-26T02:48:25;3.00;99.90
1578;DHT22;57623;53.608;10.004;2024-02-26T02:50:53;3.00;99.90
1578;DHT22;57623;53.608;10.004;2024-02-26T02:53:21;3.00;99.90
1578;DHT22;57623;53.608;10.004;2024-02-26T02:55:50;3.00;99.90
1578;DHT22;57623;53.608;10.004;2024-02-26T02:58:18;3.00;99.90
1578;DHT22;57623;53.608;10.004;2024-02-26T03:00:46;3.00;99.90
1578;DHT22;57623;53.608;10.004;2024-02-26T03:03:14;2.90;99.90
1578;DHT22;57623;53.608;10.004;2024-02-26T03:05:43;2.90;99.90
1578;DHT22;57623;53.608;10.004;2024-02-26T03:08:11;2.90;99.90
1578;DHT22;57623;53.608;10.004;2024-02-26T03:10:39;2.90;99.90
1578;DHT22;57623;53.608;10.004;2024-02-26T03:13:10;2.90;99.90
1578;DHT22;57623;53.608;10.004;2024-02-26T03:15:38;2.90;99.90
1578;DHT22;57623;53.608;10.004;2024-02-26T03:18:06;2.90;99.90
1578;DHT22;57623;53.608;10.004;2024-02-26T03:20:35;2.90;99.90
1578;DHT22;57623;53.608;10.004;2024-02-26T03:23:03;3.00;99.90
1578;DHT22;57623;53.608;10.004;2024-02-26T03:25:31;3.00;99.90
1578;DHT22;57623;53.608;10.004;2024-02-26T03:27:59;3.00;99.90
1578;DHT22;57623;53.608;10.004;2024-02-26T03:30:28;2.90;99.90
1578;DHT22;57623;53.608;10.004;2024-02-26T03:32:56;2.90;99.90
1578;DHT22;57623;53.608;10.004;2024-02-26T03:35:24;2.90;99.90
1578;DHT22;57623;53.608;10.004;2024-02-26T03:37:52;2.80;99.90
1578;DHT22;57623;53.608;10.004;2024-02-26T03:40:20;2.90;99.90
1578;DHT22;57623;53.608;10.004;2024-02-26T03:42:48;2.80;99.90
1578;DHT22;57623;53.608;10.004;2024-02-26T03:45:16;2.80;99.90
1578;DHT22;57623;53.608;10.004;2024-02-26T03:47:45;2.80;99.90
1578;DHT22;57623;53.608;10.004;2024-02-26T03:50:14;2.70;99.90
1578;DHT22;57623;53.608;10.004;2024-02-26T03:52:43;2.70;99.90
1578;DHT22;57623;53.608;10.004;2024-02-26T03:55:11;2.70;99.90
1578;DHT22;57623;53.608;10.004;2024-02-26T03:57:39;2.70;99.90
1578;DHT22;57623;53.608;10.004;2024-02-26T04:00:07;2.70;99.90
1578;DHT22;57623;53.608;10.004;2024-02-26T04:02:35;2.70;99.90
1578;DHT22;57623;53.608;10.004;2024-02-26T04:05:14;2.70;99.90
1578;DHT22;57623;53.608;10.004;2024-02-26T04:07:42;2.60;99.90
1578;DHT22;57623;53.608;10.004;2024-02-26T04:10:11;2.70;99.90
1578;DHT22;57623;53.608;10.004;2024-02-26T04:12:39;2.70;99.90
1578;DHT22;57623;53.608;10.004;2024-02-26T04:15:09;2.70;99.90
1578;DHT22;57623;53.608;10.004;2024-02-26T04:17:38;2.70;99.90
1578;DHT22;57623;53.608;10.004;2024-02-26T04:20:12;2.70;99.90
1578;DHT22;57623;53.608;10.004;2024-02-26T04:22:40;2.70;99.90
1578;DHT22;57623;53.608;10.004;2024-02-26T04:25:08;2.60;99.90
1578;DHT22;57623;53.608;10.004;2024-02-26T04:27:36;2.60;99.90
1578;DHT22;57623;53.608;10.004;2024-02-26T04:30:06;2.60;99.90
1578;DHT22;57623;53.608;10.004;2024-02-26T04:32:34;2.60;99.90
1578;DHT22;57623;53.608;10.004;2024-02-26T04:35:02;2.60;99.90
1578;DHT22;57623;53.608;10.004;2024-02-26T04:37:32;2.60;99.90
1578;DHT22;57623;53.608;10.004;2024-02-26T04:40:00;2.50;99.90
1578;DHT22;57623;53.608;10.004;2024-02-26T04:42:29;2.50;99.90
1578;DHT22;57623;53.608;10.004;2024-02-26T04:44:57;2.50;99.90
1578;DHT22;57623;53.608;10.004;2024-02-26T04:47:25;2.50;99.90
1578;DHT22;57623;53.608;10.004;2024-02-26T04:49:53;2.50;99.90
1578;DHT22;57623;53.608;10.004;2024-02-26T04:52:21;2.40;99.90
1578;DHT22;57623;53.608;10.004;2024-02-26T04:54:50;2.40;99.90
1578;DHT22;57623;53.608;10.004;2024-02-26T04:57:18;2.40;99.90
1578;DHT22;57623;53.608;10.004;2024-02-26T04:59:46;2.40;99.90
1578;DHT22;57623;53.608;10.004;2024-02-26T05:02:14;2.40;99.90
1578;DHT22;57623;53.608;10.004;2024-02-26T05:04:42;2.40;99.90
1578;DHT22;57623;53.608;10.004;2024-02-26T05:07:10;2.40;99.90
1578;DHT22;57623;53.608;10.004;2024-02-26T05:09:40;2.40;99.90
1578;DHT22;57623;53.608;10.004;2024-02-26T05:12:10;2.30;99.90
1578;DHT22;57623;53.608;10.004;2024-02-26T05:14:38;2.30;99.90
1578;DHT22;57623;53.608;10.004;2024-02-26T05:17:06;2.30;99.90
1578;DHT22;57623;53.608;10.004;2024-02-26T05:19:34;2.30;99.90
1578;DHT22;57623;53.608;10.004;2024-02-26T05:22:02;2.30;99.90
1578;DHT22;57623;53.608;10.004;2024-02-26T05:24:30;2.30;99.90
1578;DHT22;57623;53.608;10.004;2024-02-26T05:26:59;2.30;99.90
1578;DHT22;57623;53.608;10.004;2024-02-26T05:29:29;2.30;99.90
1578;DHT22;57623;53.608;10.004;2024-02-26T05:31:57;2.30;99.90
1578;DHT22;57623;53.608;10.004;2024-02-26T05:34:25;2.30;99.90
1578;DHT22;57623;53.608;10.004;2024-02-26T05:36:53;2.30;99.90
1578;DHT22;57623;53.608;10.004;2024-02-26T05:39:21;2.30;99.90
1578;DHT22;57623;53.608;10.004;2024-02-26T05:41:49;2.30;99.90
1578;DHT22;57623;53.608;10.004;2024-02-26T05:44:17;2.30;99.90
1578;DHT22;57623;53.608;10.004;2024-02-26T05:46:47;2.30;99.90
1578;DHT22;57623;53.608;10.004;2024-02-26T05:49:15;2.30;99.90
1578;DHT22;57623;53.608;10.004;2024-02-26T05:51:43;2.30;99.90
1578;DHT22;57623;53.608;10.004;2024-02-26T05:54:11;2.30;99.90
1578;DHT22;57623;53.608;10.004;2024-02-26T05:56:39;2.30;99.90
1578;DHT22;57623;53.608;10.004;2024-02-26T05:59:07;2.30;99.90
1578;DHT22;57623;53.608;10.004;2024-02-26T06:01:35;2.30;99.90
1578;DHT22;57623;53.608;10.004;2024-02-26T06:04:04;2.30;99.90
1578;DHT22;57623;53.608;10.004;2024-02-26T06:06:32;2.30;99.90
1578;DHT22;57623;53.608;10.004;2024-02-26T06:09:01;2.30;99.90
1578;DHT22;57623;53.608;10.004;2024-02-26T06:11:31;2.30;99.90
1578;DHT22;57623;53.608;10.004;2024-02-26T06:13:59;2.30;99.90
1578;DHT22;57623;53.608;10.004;2024-02-26T06:16:30;2.30;99.90
1578;DHT22;57623;53.608;10.004;2024-02-26T06:18:58;2.30;99.90
1578;DHT22;57623;53.608;10.004;2024-02-26T06:21:28;2.30;99.90
1578;DHT22;57623;53.608;10.004;2024-02-26T06:23:56;2.30;99.90
1578;DHT22;57623;53.608;10.004;2024-02-26T06:26:25;2.30;99.90
1578;DHT22;57623;53.608;10.004;2024-02-26T06:28:55;2.30;99.90
1578;DHT22;57623;53.608;10.004;2024-02-26T06:31:23;2.30;99.90
1578;DHT22;57623;53.608;10.004;2024-02-26T06:33:54;2.30;99.90
1578;DHT22;57623;53.608;10.004;2024-02-26T06:36:22;2.40;99.90
1578;DHT22;57623;53.608;10.004;2024-02-26T06:38:51;2.40;99.90
1578;DHT22;57623;53.608;10.004;2024-02-26T06:41:21;2.40;99.90
1578;DHT22;57623;53.608;10.004;2024-02-26T06:43:53;2.40;99.90
1578;DHT22;57623;53.608;10.004;2024-02-26T06:46:22;2.40;99.90
1578;DHT22;57623;53.608;10.004;2024-02-26T06:48:51;2.40;99.90
1578;DHT22;57623;53.608;10.004;2024-02-26T06:51:21;2.40;99.90
1578;DHT22;57623;53.608;10.004;2024-02-26T06:53:51;2.50;99.90
1578;DHT22;57623;53.608;10.004;2024-02-26T06:56:19;2.50;99.90
1578;DHT22;57623;53.608;10.004;2024-02-26T06:58:47;2.50;99.90
1578;DHT22;57623;53.608;10.004;2024-02-26T07:01:15;2.50;99.90
1578;DHT22;57623;53.608;10.004;2024-02-26T07:03:43;2.60;99.90
1578;DHT22;57623;53.608;10.004;2024-02-26T07:06:11;2.60;99.90
1578;DHT22;57623;53.608;10.004;2024-02-26T07:08:40;2.60;99.90
1578;DHT22;57623;53.608;10.004;2024-02-26T07:11:10;2.60;99.90
1578;DHT22;57623;53.608;10.004;2024-02-26T07:13:38;2.60;99.90
1578;DHT22;57623;53.608;10.004;2024-02-26T07:16:07;2.60;99.90
1578;DHT22;57623;53.608;10.004;2024-02-26T07:18:36;2.60;99.90
1578;DHT22;57623;53.608;10.004;2024-02-26T07:21:04;2.70;99.90
1578;DHT22;57623;53.608;10.004;2024-02-26T07:23:33;2.60;99.90
1578;DHT22;57623;53.608;10.004;2024-02-26T07:26:01;2.60;99.90
1578;DHT22;57623;53.608;10.004;2024-02-26T07:28:30;2.70;99.90
1578;DHT22;57623;53.608;10.004;2024-02-26T07:30:58;2.70;99.90
1578;DHT22;57623;53.608;10.004;2024-02-26T07:33:26;2.70;99.90
1578;DHT22;57623;53.608;10.004;2024-02-26T07:35:54;2.70;99.90
1578;DHT22;57623;53.608;10.004;2024-02-26T07:38:22;2.70;99.90
1578;DHT22;57623;53.608;10.004;2024-02-26T07:41:07;2.80;99.90
1578;DHT22;57623;53.608;10.004;2024-02-26T07:43:37;2.80;99.90
1578;DHT22;57623;53.608;10.004;2024-02-26T07:46:04;2.80;99.90
1578;DHT22;57623;53.608;10.004;2024-02-26T07:48:32;2.80;99.90
1578;DHT22;57623;53.608;10.004;2024-02-26T07:51:01;2.90;99.90
1578;DHT22;57623;53.608;10.004;2024-02-26T07:53:30;2.90;99.90
1578;DHT22;57623;53.608;10.004;2024-02-26T07:55:58;2.90;99.90
1578;DHT22;57623;53.608;10.004;2024-02-26T07:58:26;2.90;99.90
1578;DHT22;57623;53.608;10.004;2024-02-26T08:00:55;3.00;99.90
1578;DHT22;57623;53.608;10.004;2024-02-26T08:03:23;3.00;99.90
1578;DHT22;57623;53.608;10.004;2024-02-26T08:05:51;3.00;99.90
1578;DHT22;57623;53.608;10.004;2024-02-26T08:08:20;3.10;99.90
1578;DHT22;57623;53.608;10.004;2024-02-26T08:10:48;3.10;99.90
1578;DHT22;57623;53.608;10.004;2024-02-26T08:13:16;3.10;99.90
1578;DHT22;57623;53.608;10.004;2024-02-26T08:15:44;3.10;99.90
1578;DHT22;57623;53.608;10.004;2024-02-26T08:18:13;3.20;99.90
1578;DHT22;57623;53.608;10.004;2024-02-26T08:20:42;3.20;99.90
1578;DHT22;57623;53.608;10.004;2024-02-26T08:23:11;3.20;99.90
1578;DHT22;57623;53.608;10.004;2024-02-26T08:25:39;3.30;99.90
1578;DHT22;57623;53.608;10.004;2024-02-26T08:28:07;3.30;99.90
1578;DHT22;57623;53.608;10.004;2024-02-26T08:30:35;3.30;99.90
1578;DHT22;57623;53.608;10.004;2024-02-26T08:33:03;3.30;99.90
1578;DHT22;57623;53.608;10.004;2024-02-26T08:35:32;3.30;99.90
1578;DHT22;57623;53.608;10.004;2024-02-26T08:38:00;3.30;99.90
1578;DHT22;57623;53.608;10.004;2024-02-26T08:40:29;3.30;99.90
1578;DHT22;57623;53.608;10.004;2024-02-26T08:42:57;3.40;99.90
1578;DHT22;57623;53.608;10.004;2024-02-26T08:45:25;3.40;99.90
1578;DHT22;57623;53.608;10.004;2024-02-26T08:47:56;3.40;99.90
1578;DHT22;57623;53.608;10.004;2024-02-26T08:50:25;3.50;99.90
1578;DHT22;57623;53.608;10.004;2024-02-26T08:52:55;3.50;99.90
1578;DHT22;57623;53.608;10.004;2024-02-26T08:55:23;3.50;99.90
1578;DHT22;57623;53.608;10.004;2024-02-26T08:57:51;3.50;99.90
1578;DHT22;57623;53.608;10.004;2024-02-26T09:00:19;3.50;99.90
1578;DHT22;57623;53.608;10.004;2024-02-26T09:02:47;3.50;99.90
1578;DHT22;57623;53.608;10.004;2024-02-26T09:05:16;3.60;99.90
1578;DHT22;57623;53.608;10.004;2024-02-26T09:07:44;3.60;99.90
1578;DHT22;57623;53.608;10.004;2024-02-26T09:10:14;3.70;99.90
1578;DHT22;57623;53.608;10.004;2024-02-26T09:12:42;3.60;99.90
1578;DHT22;57623;53.608;10.004;2024-02-26T09:15:10;3.70;99.90
1578;DHT22;57623;53.608;10.004;2024-02-26T09:17:39;3.80;99.90
1578;DHT22;57623;53.608;10.004;2024-02-26T09:20:08;3.80;99.90
1578;DHT22;57623;53.608;10.004;2024-02-26T09:22:36;3.80;99.90
1578;DHT22;57623;53.608;10.004;2024-02-26T09:25:06;3.90;99.90
1578;DHT22;57623;53.608;10.004;2024-02-26T09:27:35;3.90;99.90
1578;DHT22;57623;53.608;10.004;2024-02-26T09:30:09;3.90;99.90
1578;DHT22;57623;53.608;10.004;2024-02-26T09:32:38;4.00;99.90
1578;DHT22;57623;53.608;10.004;2024-02-26T09:35:06;4.00;99.90
1578;DHT22;57623;53.608;10.004;2024-02-26T09:37:34;4.10;99.90
1578;DHT22;57623;53.608;10.004;2024-02-26T09:40:04;4.10;99.90
1578;DHT22;57623;53.608;10.004;2024-02-26T09:42:34;4.20;99.90
1578;DHT22;57623;53.608;10.004;2024-02-26T09:45:05;4.20;99.90
1578;DHT22;57623;53.608;10.004;2024-02-26T09:47:36;4.20;99.90
1578;DHT22;57623;53.608;10.004;2024-02-26T09:50:07;4.30;99.90
1578;DHT22;57623;53.608;10.004;2024-02-26T09:52:41;4.30;99.90
1578;DHT22;57623;53.608;10.004;2024-02-26T09:55:09;4.40;99.90
1578;DHT22;57623;53.608;10.004;2024-02-26T09:57:41;4.40;99.90
1578;DHT22;57623;53.608;10.004;2024-02-26T10:00:16;4.40;99.90
1578;DHT22;57623;53.608;10.004;2024-02-26T10:02:46;4.50;99.90
1578;DHT22;57623;53.608;10.004;2024-02-26T10:05:17;4.50;99.90
1578;DHT22;57623;53.608;10.004;2024-02-26T10:07:45;4.50;99.90
1578;DHT22;57623;53.608;10.004;2024-02-26T10:10:14;4.50;99.90
1578;DHT22;57623;53.608;10.004;2024-02-26T10:12:43;4.60;99.90
1578;DHT22;57623;53.608;10.004;2024-02-26T10:15:11;4.60;99.90
1578;DHT22;57623;53.608;10.004;2024-02-26T10:17:40;4.60;99.90
1578;DHT22;57623;53.608;10.004;2024-02-26T10:20:12;4.70;99.90
1578;DHT22;57623;53.608;10.004;2024-02-26T10:22:41;4.70;99.90
1578;DHT22;57623;53.608;10.004;2024-02-26T10:25:09;4.80;99.90
1578;DHT22;57623;53.608;10.004;2024-02-26T10:27:38;4.80;99.90
1578;DHT22;57623;53.608;10.004;2024-02-26T10:30:16;4.90;99.90
1578;DHT22;57623;53.608;10.004;2024-02-26T10:32:46;4.90;99.90
1578;DHT22;57623;53.608;10.004;2024-02-26T10:35:15;5.00;99.90
1578;DHT22;57623;53.608;10.004;2024-02-26T10:37:44;5.10;99.90
1578;DHT22;57623;53.608;10.004;2024-02-26T10:40:13;5.10;99.90
1578;DHT22;57623;53.608;10.004;2024-02-26T10:42:42;5.20;99.90
1578;DHT22;57623;53.608;10.004;2024-02-26T10:45:11;5.20;99.90
1578;DHT22;57623;53.608;10.004;2024-02-26T10:47:41;5.30;99.90
1578;DHT22;57623;53.608;10.004;2024-02-26T10:50:10;5.30;99.90
1578;DHT22;57623;53.608;10.004;2024-02-26T10:52:42;5.40;99.90
1578;DHT22;57623;53.608;10.004;2024-02-26T10:55:15;5.50;99.90
1578;DHT22;57623;53.608;10.004;2024-02-26T10:57:45;5.50;99.90
1578;DHT22;57623;53.608;10.004;2024-02-26T11:00:15;5.60;99.90
1578;DHT22;57623;53.608;10.004;2024-02-26T11:02:45;5.70;99.90
1578;DHT22;57623;53.608;10.004;2024-02-26T11:05:14;5.80;99.90
1578;DHT22;57623;53.608;10.004;2024-02-26T11:07:43;5.90;99.90
1578;DHT22;57623;53.608;10.004;2024-02-26T11:10:13;6.00;99.90
1578;DHT22;57623;53.608;10.004;2024-02-26T11:12:43;6.10;99.90
1578;DHT22;57623;53.608;10.004;2024-02-26T11:15:12;6.20;99.90
1578;DHT22;57623;53.608;10.004;2024-02-26T11:17:41;6.30;99.90
1578;DHT22;57623;53.608;10.004;2024-02-26T11:20:12;6.50;99.90
1578;DHT22;57623;53.608;10.004;2024-02-26T11:22:41;6.60;99.90
1578;DHT22;57623;53.608;10.004;2024-02-26T11:25:09;6.80;99.90
1578;DHT22;57623;53.608;10.004;2024-02-26T11:27:42;6.90;99.90
1578;DHT22;57623;53.608;10.004;2024-02-26T11:30:12;7.00;99.90
1578;DHT22;57623;53.608;10.004;2024-02-26T11:32:44;7.20;99.90
1578;DHT22;57623;53.608;10.004;2024-02-26T11:35:15;7.30;99.90
1578;DHT22;57623;53.608;10.004;2024-02-26T11:37:53;7.40;99.90
1578;DHT22;57623;53.608;10.004;2024-02-26T11:40:22;7.60;99.90
1578;DHT22;57623;53.608;10.004;2024-02-26T11:42:51;7.70;99.90
1578;DHT22;57623;53.608;10.004;2024-02-26T11:45:48;7.80;99.90
1578;DHT22;57623;53.608;10.004;2024-02-26T11:48:23;7.90;99.90
1578;DHT22;57623;53.608;10.004;2024-02-26T11:50:53;8.00;99.90
1578;DHT22;57623;53.608;10.004;2024-02-26T11:53:26;8.10;99.90
1578;DHT22;57623;53.608;10.004;2024-02-26T11:56:27;8.10;99.90
1578;DHT22;57623;53.608;10.004;2024-02-26T11:59:00;8.10;99.90
1578;DHT22;57623;53.608;10.004;2024-02-26T12:01:45;8.10;99.90
1578;DHT22;57623;53.608;10.004;2024-02-26T12:04:19;8.10;99.90
1578;DHT22;57623;53.608;10.004;2024-02-26T12:06:53;8.10;99.90
1578;DHT22;57623;53.608;10.004;2024-02-26T12:09:33;8.10;99.90
1578;DHT22;57623;53.608;10.004;2024-02-26T12:12:02;8.10;99.90
1578;DHT22;57623;53.608;10.004;2024-02-26T12:14:33;8.10;99.90
1578;DHT22;57623;53.608;10.004;2024-02-26T12:17:02;8.10;99.90
1578;DHT22;57623;53.608;10.004;2024-02-26T12:19:34;8.10;99.90
1578;DHT22;57623;53.608;10.004;2024-02-26T12:22:08;8.10;99.90
1578;DHT22;57623;53.608;10.004;2024-02-26T12:24:40;8.10;99.90
1578;DHT22;57623;53.608;10.004;2024-02-26T12:27:08;8.10;99.90
1578;DHT22;57623;53.608;10.004;2024-02-26T12:29:36;8.20;99.90
1578;DHT22;57623;53.608;10.004;2024-02-26T12:32:05;8.30;99.90
1578;DHT22;57623;53.608;10.004;2024-02-26T12:34:34;8.50;99.90
1578;DHT22;57623;53.608;10.004;2024-02-26T12:37:03;8.60;99.90
1578;DHT22;57623;53.608;10.004;2024-02-26T12:39:32;8.60;99.90
1578;DHT22;57623;53.608;10.004;2024-02-26T12:42:00;8.70;99.90
1578;DHT22;57623;53.608;10.004;2024-02-26T12:44:29;8.60;99.90
1578;DHT22;57623;53.608;10.004;2024-02-26T12:47:01;8.50;99.90
1578;DHT22;57623;53.608;10.004;2024-02-26T12:49:31;8.50;99.90
1578;DHT22;57623;53.608;10.004;2024-02-26T12:52:00;8.50;99.90
1578;DHT22;57623;53.608;10.004;2024-02-26T12:54:29;8.50;99.90
1578;DHT22;57623;53.608;10.004;2024-02-26T12:57:01;8.60;99.90
1578;DHT22;57623;53.608;10.004;2024-02-26T12:59:30;8.60;99.90
1578;DHT22;57623;53.608;10.004;2024-02-26T13:01:59;8.50;99.90
1578;DHT22;57623;53.608;10.004;2024-02-26T13:04:29;8.40;99.90
1578;DHT22;57623;53.608;10.004;2024-02-26T13:06:57;8.40;99.90
1578;DHT22;57623;53.608;10.004;2024-02-26T13:09:33;8.30;99.90
1578;DHT22;57623;53.608;10.004;2024-02-26T13:12:05;8.30;99.90
1578;DHT22;57623;53.608;10.004;2024-02-26T13:14:33;8.40;99.90
1578;DHT22;57623;53.608;10.004;2024-02-26T13:17:02;8.70;99.90
1578;DHT22;57623;53.608;10.004;2024-02-26T13:19:30;9.00;99.90
1578;DHT22;57623;53.608;10.004;2024-02-26T13:22:04;9.20;99.90
1578;DHT22;57623;53.608;10.004;2024-02-26T13:24:33;9.30;99.90
1578;DHT22;57623;53.608;10.004;2024-02-26T13:27:01;9.30;99.90
1578;DHT22;57623;53.608;10.004;2024-02-26T13:29:31;9.20;99.90
1578;DHT22;57623;53.608;10.004;2024-02-26T13:32:00;9.10;99.90
1578;DHT22;57623;53.608;10.004;2024-02-26T13:34:29;8.90;99.90
1578;DHT22;57623;53.608;10.004;2024-02-26T13:36:58;9.00;99.90
1578;DHT22;57623;53.608;10.004;2024-02-26T13:39:27;9.20;99.90
1578;DHT22;57623;53.608;10.004;2024-02-26T13:41:55;9.60;99.90
1578;DHT22;57623;53.608;10.004;2024-02-26T13:44:23;9.70;99.90
1578;DHT22;57623;53.608;10.004;2024-02-26T13:46:53;9.90;99.90
1578;DHT22;57623;53.608;10.004;2024-02-26T13:49:21;10.30;99.90
1578;DHT22;57623;53.608;10.004;2024-02-26T13:51:50;10.70;99.90
1578;DHT22;57623;53.608;10.004;2024-02-26T13:54:18;10.80;99.90
1578;DHT22;57623;53.608;10.004;2024-02-26T13:56:46;10.60;99.90
1578;DHT22;57623;53.608;10.004;2024-02-26T13:59:14;10.50;99.90
1578;DHT22;57623;53.608;10.004;2024-02-26T14:01:42;10.50;99.90
1578;DHT22;57623;53.608;10.004;2024-02-26T14:04:12;10.50;99.90
1578;DHT22;57623;53.608;10.004;2024-02-26T14:06:41;10.60;99.90
1578;DHT22;57623;53.608;10.004;2024-02-26T14:09:09;10.50;99.90
1578;DHT22;57623;53.608;10.004;2024-02-26T14:11:37;10.20;99.90
1578;DHT22;57623;53.608;10.004;2024-02-26T14:14:06;10.00;99.90
1578;DHT22;57623;53.608;10.004;2024-02-26T14:16:34;9.70;99.90
1578;DHT22;57623;53.608;10.004;2024-02-26T14:19:02;9.60;99.90
1578;DHT22;57623;53.608;10.004;2024-02-26T14:21:32;9.40;99.90
1578;DHT22;57623;53.608;10.004;2024-02-26T14:24:00;9.40;99.90
1578;DHT22;57623;53.608;10.004;2024-02-26T14:26:28;9.50;99.90
1578;DHT22;57623;53.608;10.004;2024-02-26T14:28:56;9.50;99.90
1578;DHT22;57623;53.608;10.004;2024-02-26T14:31:24;9.50;99.90
1578;DHT22;57623;53.608;10.004;2024-02-26T14:33:52;9.40;99.90
1578;DHT22;57623;53.608;10.004;2024-02-26T14:36:21;9.30;99.90
1578;DHT22;57623;53.608;10.004;2024-02-26T14:38:51;9.20;99.90
1578;DHT22;57623;53.608;10.004;2024-02-26T14:41:19;9.10;99.90
1578;DHT22;57623;53.608;10.004;2024-02-26T14:43:47;9.00;99.90
1578;DHT22;57623;53.608;10.004;2024-02-26T14:46:15;8.90;99.90
1578;DHT22;57623;53.608;10.004;2024-02-26T14:48:43;8.80;99.90
1578;DHT22;57623;53.608;10.004;2024-02-26T14:51:11;8.70;99.90
1578;DHT22;57623;53.608;10.004;2024-02-26T14:53:39;8.70;99.90
1578;DHT22;57623;53.608;10.004;2024-02-26T14:56:08;8.60;99.90
1578;DHT22;57623;53.608;10.004;2024-02-26T14:58:36;8.50;99.90
1578;DHT22;57623;53.608;10.004;2024-02-26T15:01:06;8.40;99.90
1578;DHT22;57623;53.608;10.004;2024-02-26T15:03:34;8.30;99.90
1578;DHT22;57623;53.608;10.004;2024-02-26T15:06:02;8.20;99.90
1578;DHT22;57623;53.608;10.004;2024-02-26T15:08:31;8.20;99.90
1578;DHT22;57623;53.608;10.004;2024-02-26T15:11:01;8.20;99.90
1578;DHT22;57623;53.608;10.004;2024-02-26T15:13:31;8.10;99.90
1578;DHT22;57623;53.608;10.004;2024-02-26T15:15:59;8.00;99.90
1578;DHT22;57623;53.608;10.004;2024-02-26T15:18:27;8.00;99.90
1578;DHT22;57623;53.608;10.004;2024-02-26T15:20:55;8.00;99.90
1578;DHT22;57623;53.608;10.004;2024-02-26T15:23:23;8.00;99.90
1578;DHT22;57623;53.608;10.004;2024-02-26T15:25:51;7.90;99.90
1578;DHT22;57623;53.608;10.004;2024-02-26T15:28:19;7.90;99.90
1578;DHT22;57623;53.608;10.004;2024-02-26T15:30:49;7.80;99.90
1578;DHT22;57623;53.608;10.004;2024-02-26T15:33:16;7.80;99.90
1578;DHT22;57623;53.608;10.004;2024-02-26T15:35:45;7.80;99.90
1578;DHT22;57623;53.608;10.004;2024-02-26T15:38:13;7.70;99.90
1578;DHT22;57623;53.608;10.004;2024-02-26T15:40:41;7.70;99.90
1578;DHT22;57623;53.608;10.004;2024-02-26T15:43:11;7.60;99.90
1578;DHT22;57623;53.608;10.004;2024-02-26T15:45:41;7.60;99.90
1578;DHT22;57623;53.608;10.004;2024-02-26T15:48:11;7.50;99.90
1578;DHT22;57623;53.608;10.004;2024-02-26T15:50:39;7.50;99.90
1578;DHT22;57623;53.608;10.004;2024-02-26T15:53:08;7.40;99.90
1578;DHT22;57623;53.608;10.004;2024-02-26T15:55:36;7.40;99.90
1578;DHT22;57623;53.608;10.004;2024-02-26T15:58:08;7.30;99.90